sensor_id;sensor_type;location;lat;lon;timestamp;pressure;altitude;pressure_sealevel;temperature;humidity
82033;BME280;71595;52.180;4.512;2024-03-29T00:00:35;98918.63;;;9.74;63.98
82033;BME280;71595;52.180;4.512;2024-03-29T00:03:00;98912.66;;;9.68;64.39
82033;BME280;71595;52.180;4.512;2024-03-29T00:05:25;98916.19;;;9.69;64.44
82033;BME280;71595;52.180;4.512;2024-03-29T00:07:51;98913.13;;;9.78;63.70
82033;BME280;71595;52.180;4.512;2024-03-29T00:10:16;98910.34;;;9.74;63.72
82033;BME280;71595;52.180;4.512;2024-03-29T00:12:41;98916.63;;;9.71;63.96
82033;BME280;71595;52.180;4.512;2024-03-29T00:15:07;98918.13;;;9.65;64.42
82033;BME280;71595;52.180;4.512;2024-03-29T00:17:32;98916.53;;;9.64;64.37
82033;BME280;71595;52.180;4.512;2024-03-29T00:20:13;98920.53;;;9.70;63.92
82033;BME280;71595;52.180;4.512;2024-03-29T00:22:38;98920.94;;;9.72;63.81
82033;BME280;71595;52.180;4.512;2024-03-29T00:25:04;98919.69;;;9.66;63.98
82033;BME280;71595;52.180;4.512;2024-03-29T00:27:29;98917.69;;;9.63;64.34
82033;BME280;71595;52.180;4.512;2024-03-29T00:29:55;98922.44;;;9.62;64.27
82033;BME280;71595;52.180;4.512;2024-03-29T00:32:21;98926.78;;;9.63;64.48
82033;BME280;71595;52.180;4.512;2024-03-29T00:34:48;98935.06;;;9.67;64.12
82033;BME280;71595;52.180;4.512;2024-03-29T00:37:14;98924.03;;;9.63;64.21
82033;BME280;71595;52.180;4.512;2024-03-29T00:39:39;98925.97;;;9.63;64.05
82033;BME280;71595;52.180;4.512;2024-03-29T00:42:04;98924.41;;;9.62;64.37
82033;BME280;71595;52.180;4.512;2024-03-29T00:44:34;98930.72;;;9.66;64.09
82033;BME280;71595;52.180;4.512;2024-03-29T00:47:00;98926.81;;;9.67;64.07
82033;BME280;71595;52.180;4.512;2024-03-29T00:49:26;98935.91;;;9.71;63.49
82033;BME280;71595;52.180;4.512;2024-03-29T00:51:54;98939.06;;;9.73;63.21
82033;BME280;71595;52.180;4.512;2024-03-29T00:54:19;98932.31;;;9.67;63.80
82033;BME280;71595;52.180;4.512;2024-03-29T00:56:45;98935.91;;;9.71;63.55
82033;BME280;71595;52.180;4.512;2024-03-29T00:59:10;98938.63;;;9.67;63.79
82033;BME280;71595;52.180;4.512;2024-03-29T01:01:35;98936.66;;;9.68;63.91
82033;BME280;71595;52.180;4.512;2024-03-29T01:04:01;98944.13;;;9.67;63.76
82033;BME280;71595;52.180;4.512;2024-03-29T01:06:26;98944.19;;;9.71;63.59
82033;BME280;71595;52.180;4.512;2024-03-29T01:08:51;98946.94;;;9.71;63.15
82033;BME280;71595;52.180;4.512;2024-03-29T01:11:16;98942.97;;;9.68;63.29
82033;BME280;71595;52.180;4.512;2024-03-29T01:13:42;98952.84;;;9.69;63.43
82033;BME280;71595;52.180;4.512;2024-03-29T01:16:07;98946.94;;;9.71;63.34
82033;BME280;71595;52.180;4.512;2024-03-29T01:18:32;98933.16;;;9.71;63.12
82033;BME280;71595;52.180;4.512;2024-03-29T01:20:58;98938.63;;;9.67;63.54
82033;BME280;71595;52.180;4.512;2024-03-29T01:23:24;98933.91;;;9.68;63.47
82033;BME280;71595;52.180;4.512;2024-03-29T01:25:49;98929.16;;;9.65;63.47
82033;BME280;71595;52.180;4.512;2024-03-29T01:28:14;98926.81;;;9.67;63.26
82033;BME280;71595;52.180;4.512;2024-03-29T01:30:40;98929.97;;;9.69;63.18
82033;BME280;71595;52.180;4.512;2024-03-29T01:33:05;98939.44;;;9.68;63.51
82033;BME280;71595;52.180;4.512;2024-03-29T01:35:30;98935.47;;;9.65;63.31
82033;BME280;71595;52.180;4.512;2024-03-29T01:37:55;98937.84;;;9.67;63.60
82033;BME280;71595;52.180;4.512;2024-03-29T01:40:21;98936.25;;;9.66;63.58
82033;BME280;71595;52.180;4.512;2024-03-29T01:42:46;98939.03;;;9.69;63.43
82033;BME280;71595;52.180;4.512;2024-03-29T01:45:11;98929.22;;;9.72;63.18
82033;BME280;71595;52.180;4.512;2024-03-29T01:47:37;98930.44;;;9.78;62.89
82033;BME280;71595;52.180;4.512;2024-03-29T01:50:03;98926.13;;;9.77;63.11
82033;BME280;71595;52.180;4.512;2024-03-29T01:52:29;98922.19;;;9.78;62.73
82033;BME280;71595;52.180;4.512;2024-03-29T01:54:54;98913.53;;;9.80;62.89
82033;BME280;71595;52.180;4.512;2024-03-29T01:57:20;98926.13;;;9.77;63.15
82033;BME280;71595;52.180;4.512;2024-03-29T01:59:46;98929.25;;;9.76;62.76
82033;BME280;71595;52.180;4.512;2024-03-29T02:02:13;98927.69;;;9.78;63.08
82033;BME280;71595;52.180;4.512;2024-03-29T02:04:38;98922.19;;;9.78;63.06
82033;BME280;71595;52.180;4.512;2024-03-29T02:07:04;98924.59;;;9.83;62.62
82033;BME280;71595;52.180;4.512;2024-03-29T02:09:29;98923.41;;;9.84;62.41
82033;BME280;71595;52.180;4.512;2024-03-29T02:11:55;98928.53;;;9.82;62.81
82033;BME280;71595;52.180;4.512;2024-03-29T02:14:20;98926.91;;;9.78;62.87
82033;BME280;71595;52.180;4.512;2024-03-29T02:16:45;98924.50;;;9.73;63.21
82033;BME280;71595;52.180;4.512;2024-03-29T02:19:11;98929.63;;;9.74;63.23
82033;BME280;71595;52.180;4.512;2024-03-29T02:21:37;98934.78;;;9.79;62.67
82033;BME280;71595;52.180;4.512;2024-03-29T02:24:09;98939.16;;;9.80;62.37
82033;BME280;71595;52.180;4.512;2024-03-29T02:26:34;98932.44;;;9.81;62.50
82033;BME280;71595;52.180;4.512;2024-03-29T02:29:04;98941.53;;;9.82;61.89
82033;BME280;71595;52.180;4.512;2024-03-29T02:31:30;98941.84;;;9.77;62.37
82033;BME280;71595;52.180;4.512;2024-03-29T02:33:55;98939.47;;;9.75;62.58
82033;BME280;71595;52.180;4.512;2024-03-29T02:36:21;98952.84;;;9.73;62.49
82033;BME280;71595;52.180;4.512;2024-03-29T02:38:46;98943.81;;;9.73;62.54
82033;BME280;71595;52.180;4.512;2024-03-29T02:41:11;98941.44;;;9.71;62.74
82033;BME280;71595;52.180;4.512;2024-03-29T02:43:37;98944.19;;;9.71;62.80
82033;BME280;71595;52.180;4.512;2024-03-29T02:46:02;98948.09;;;9.70;62.76
82033;BME280;71595;52.180;4.512;2024-03-29T02:48:27;98955.22;;;9.71;62.15
82033;BME280;71595;52.180;4.512;2024-03-29T02:50:53;98947.69;;;9.68;62.61
82033;BME280;71595;52.180;4.512;2024-03-29T02:53:18;98952.84;;;9.73;62.43
82033;BME280;71595;52.180;4.512;2024-03-29T02:55:44;98958.34;;;9.69;63.20
82033;BME280;71595;52.180;4.512;2024-03-29T02:58:09;98948.47;;;9.65;63.17
82033;BME280;71595;52.180;4.512;2024-03-29T03:00:34;98947.22;;;9.59;63.59
82033;BME280;71595;52.180;4.512;2024-03-29T03:02:59;98949.63;;;9.64;62.82
82033;BME280;71595;52.180;4.512;2024-03-29T03:05:25;98955.91;;;9.64;62.74
82033;BME280;71595;52.180;4.512;2024-03-29T03:07:50;98960.63;;;9.64;62.73
82033;BME280;71595;52.180;4.512;2024-03-29T03:10:34;98967.41;;;9.70;62.74
82033;BME280;71595;52.180;4.512;2024-03-29T03:13:18;98954.38;;;9.67;62.54
82033;BME280;71595;52.180;4.512;2024-03-29T03:15:43;98968.16;;;9.67;62.73
82033;BME280;71595;52.180;4.512;2024-03-29T03:18:09;98966.56;;;9.66;62.62
82033;BME280;71595;52.180;4.512;2024-03-29T03:20:34;98961.03;;;9.62;62.46
82033;BME280;71595;52.180;4.512;2024-03-29T03:23:00;98976.81;;;9.69;62.03
82033;BME280;71595;52.180;4.512;2024-03-29T03:25:26;98972.91;;;9.70;61.74
82033;BME280;71595;52.180;4.512;2024-03-29T03:27:52;98979.19;;;9.67;61.62
82033;BME280;71595;52.180;4.512;2024-03-29T03:30:17;98978.78;;;9.65;62.27
82033;BME280;71595;52.180;4.512;2024-03-29T03:32:43;98988.19;;;9.64;61.44
82033;BME280;71595;52.180;4.512;2024-03-29T03:35:08;98976.41;;;9.67;61.58
82033;BME280;71595;52.180;4.512;2024-03-29T03:37:33;98978.41;;;9.70;61.42
82033;BME280;71595;52.180;4.512;2024-03-29T03:39:59;98977.19;;;9.64;61.79
82033;BME280;71595;52.180;4.512;2024-03-29T03:42:24;98972.91;;;9.70;61.30
82033;BME280;71595;52.180;4.512;2024-03-29T03:44:49;98965.41;;;9.67;61.86
82033;BME280;71595;52.180;4.512;2024-03-29T03:47:14;98968.91;;;9.64;61.86
82033;BME280;71595;52.180;4.512;2024-03-29T03:49:40;98979.94;;;9.64;61.71
82033;BME280;71595;52.180;4.512;2024-03-29T03:52:05;98982.69;;;9.64;62.04
82033;BME280;71595;52.180;4.512;2024-03-29T03:54:30;98975.19;;;9.64;61.41
82033;BME280;71595;52.180;4.512;2024-03-29T03:56:56;98981.94;;;9.67;61.36
82033;BME280;71595;52.180;4.512;2024-03-29T03:59:21;98991.38;;;9.66;61.82
82033;BME280;71595;52.180;4.512;2024-03-29T04:01:46;98998.84;;;9.65;61.56
82033;BME280;71595;52.180;4.512;2024-03-29T04:04:12;99000.81;;;9.65;61.86
82033;BME280;71595;52.180;4.512;2024-03-29T04:06:37;98997.69;;;9.66;61.68
82033;BME280;71595;52.180;4.512;2024-03-29T04:09:03;99008.72;;;9.66;61.62
82033;BME280;71595;52.180;4.512;2024-03-29T04:11:28;99003.16;;;9.63;61.78
82033;BME280;71595;52.180;4.512;2024-03-29T04:13:54;99002.75;;;9.64;61.67
82033;BME280;71595;52.180;4.512;2024-03-29T04:16:19;99005.97;;;9.66;61.56
82033;BME280;71595;52.180;4.512;2024-03-29T04:18:45;98999.59;;;9.62;61.79
82033;BME280;71595;52.180;4.512;2024-03-29T04:21:10;99006.25;;;9.58;62.29
82033;BME280;71595;52.180;4.512;2024-03-29T04:23:36;99002.34;;;9.59;62.08
82033;BME280;71595;52.180;4.512;2024-03-29T04:26:02;98993.63;;;9.57;62.53
82033;BME280;71595;52.180;4.512;2024-03-29T04:28:27;98995.19;;;9.54;62.51
82033;BME280;71595;52.180;4.512;2024-03-29T04:30:56;99008.59;;;9.56;62.30
82033;BME280;71595;52.180;4.512;2024-03-29T04:33:22;99007.84;;;9.59;61.79
82033;BME280;71595;52.180;4.512;2024-03-29T04:35:58;99010.16;;;9.57;62.41
82033;BME280;71595;52.180;4.512;2024-03-29T04:38:25;99005.50;;;9.61;62.00
82033;BME280;71595;52.180;4.512;2024-03-29T04:40:52;99008.59;;;9.56;62.00
82033;BME280;71595;52.180;4.512;2024-03-29T04:43:18;99003.84;;;9.52;62.80
82033;BME280;71595;52.180;4.512;2024-03-29T04:45:44;99006.59;;;9.52;62.50
82033;BME280;71595;52.180;4.512;2024-03-29T04:48:10;99014.03;;;9.48;62.84
82033;BME280;71595;52.180;4.512;2024-03-29T04:50:36;99010.84;;;9.46;62.90
82033;BME280;71595;52.180;4.512;2024-03-29T04:53:01;99014.06;;;9.52;62.54
82033;BME280;71595;52.180;4.512;2024-03-29T04:55:27;99012.91;;;9.57;62.58
82033;BME280;71595;52.180;4.512;2024-03-29T04:57:52;99021.94;;;9.53;62.66
82033;BME280;71595;52.180;4.512;2024-03-29T05:00:19;99022.69;;;9.50;63.01
82033;BME280;71595;52.180;4.512;2024-03-29T05:02:44;99025.81;;;9.49;63.12
82033;BME280;71595;52.180;4.512;2024-03-29T05:05:09;99025.78;;;9.45;63.27
82033;BME280;71595;52.180;4.512;2024-03-29T05:07:35;99011.56;;;9.40;63.65
82033;BME280;71595;52.180;4.512;2024-03-29T05:10:00;99022.63;;;9.43;63.34
82033;BME280;71595;52.180;4.512;2024-03-29T05:12:25;99016.34;;;9.43;63.57
82033;BME280;71595;52.180;4.512;2024-03-29T05:14:51;99018.66;;;9.41;63.64
82033;BME280;71595;52.180;4.512;2024-03-29T05:17:16;99014.72;;;9.38;64.05
82033;BME280;71595;52.180;4.512;2024-03-29T05:19:43;99028.47;;;9.38;64.03
82033;BME280;71595;52.180;4.512;2024-03-29T05:22:08;99020.97;;;9.35;64.18
82033;BME280;71595;52.180;4.512;2024-03-29T05:24:34;99021.28;;;9.30;64.58
82033;BME280;71595;52.180;4.512;2024-03-29T05:26:59;99026.47;;;9.35;64.49
82033;BME280;71595;52.180;4.512;2024-03-29T05:29:24;99028.78;;;9.33;64.77
82033;BME280;71595;52.180;4.512;2024-03-29T05:31:49;99039.41;;;9.31;64.98
82033;BME280;71595;52.180;4.512;2024-03-29T05:34:15;99045.28;;;9.29;65.07
82033;BME280;71595;52.180;4.512;2024-03-29T05:36:40;99041.75;;;9.29;65.22
82033;BME280;71595;52.180;4.512;2024-03-29T05:39:06;99046.06;;;9.30;65.38
82033;BME280;71595;52.180;4.512;2024-03-29T05:41:40;99046.88;;;9.30;65.39
82033;BME280;71595;52.180;4.512;2024-03-29T05:44:05;99062.19;;;9.28;65.64
82033;BME280;71595;52.180;4.512;2024-03-29T05:46:31;99063.31;;;9.23;65.58
82033;BME280;71595;52.180;4.512;2024-03-29T05:48:56;99070.34;;;9.21;65.97
82033;BME280;71595;52.180;4.512;2024-03-29T05:51:21;99072.69;;;9.18;65.90
82033;BME280;71595;52.180;4.512;2024-03-29T05:53:46;99072.22;;;9.13;66.39
82033;BME280;71595;52.180;4.512;2024-03-29T05:56:12;99077.31;;;9.11;66.49
82033;BME280;71595;52.180;4.512;2024-03-29T05:58:37;99068.63;;;9.09;66.91
82033;BME280;71595;52.180;4.512;2024-03-29T06:08:23;99091.78;;;9.04;67.62
82033;BME280;71595;52.180;4.512;2024-03-29T06:10:51;99088.59;;;9.02;67.45
82033;BME280;71595;52.180;4.512;2024-03-29T06:13:17;99092.09;;;8.99;67.91
82033;BME280;71595;52.180;4.512;2024-03-29T06:15:54;99093.59;;;8.93;68.74
82033;BME280;71595;52.180;4.512;2024-03-29T06:18:38;99100.66;;;8.94;68.55
82033;BME280;71595;52.180;4.512;2024-03-29T06:21:03;99100.63;;;8.90;68.52
82033;BME280;71595;52.180;4.512;2024-03-29T06:23:29;99106.91;;;8.91;68.82
82033;BME280;71595;52.180;4.512;2024-03-29T06:25:54;99111.72;;;8.97;68.74
82033;BME280;71595;52.180;4.512;2024-03-29T06:28:19;99109.75;;;8.94;69.13
82033;BME280;71595;52.180;4.512;2024-03-29T06:30:45;99107.78;;;8.95;68.78
82033;BME280;71595;52.180;4.512;2024-03-29T06:33:10;99112.41;;;8.91;69.24
82033;BME280;71595;52.180;4.512;2024-03-29T06:35:36;99112.06;;;8.92;69.27
82033;BME280;71595;52.180;4.512;2024-03-29T06:38:02;99103.00;;;8.92;69.79
82033;BME280;71595;52.180;4.512;2024-03-29T06:40:27;99107.28;;;8.89;69.59
82033;BME280;71595;52.180;4.512;2024-03-29T06:42:52;99109.75;;;8.94;70.28
82033;BME280;71595;52.180;4.512;2024-03-29T06:45:20;99100.72;;;8.97;70.42
82033;BME280;71595;52.180;4.512;2024-03-29T06:47:45;99114.19;;;9.03;70.53
82033;BME280;71595;52.180;4.512;2024-03-29T06:50:10;99101.59;;;9.05;70.93
82033;BME280;71595;52.180;4.512;2024-03-29T06:52:36;99098.97;;;9.12;70.93
82033;BME280;71595;52.180;4.512;2024-03-29T06:55:01;99095.88;;;9.17;70.84
82033;BME280;71595;52.180;4.512;2024-03-29T06:57:27;99103.41;;;9.21;70.99
82033;BME280;71595;52.180;4.512;2024-03-29T06:59:56;99101.53;;;9.28;71.05
82033;BME280;71595;52.180;4.512;2024-03-29T07:02:21;99112.56;;;9.28;71.07
82033;BME280;71595;52.180;4.512;2024-03-29T07:04:47;99107.13;;;9.32;70.92
82033;BME280;71595;52.180;4.512;2024-03-29T07:07:12;99126.84;;;9.38;71.03
82033;BME280;71595;52.180;4.512;2024-03-29T07:09:37;99116.31;;;9.43;71.02
82033;BME280;71595;52.180;4.512;2024-03-29T07:12:02;99113.16;;;9.41;71.23
82033;BME280;71595;52.180;4.512;2024-03-29T07:14:28;99113.94;;;9.42;71.36
82033;BME280;71595;52.180;4.512;2024-03-29T07:16:56;99128.19;;;9.47;71.17
82033;BME280;71595;52.180;4.512;2024-03-29T07:19:22;99127.47;;;9.54;71.09
82033;BME280;71595;52.180;4.512;2024-03-29T07:21:47;99127.84;;;9.52;71.25
82033;BME280;71595;52.180;4.512;2024-03-29T07:24:13;99129.41;;;9.53;71.17
82033;BME280;71595;52.180;4.512;2024-03-29T07:26:38;99132.16;;;9.53;71.48
82033;BME280;71595;52.180;4.512;2024-03-29T07:29:04;99126.72;;;9.57;71.46
82033;BME280;71595;52.180;4.512;2024-03-29T07:31:31;99129.53;;;9.61;71.00
82033;BME280;71595;52.180;4.512;2024-03-29T07:33:56;99135.81;;;9.61;71.25
82033;BME280;71595;52.180;4.512;2024-03-29T07:36:22;99139.38;;;9.62;71.65
82033;BME280;71595;52.180;4.512;2024-03-29T07:38:50;99133.13;;;9.65;71.02
82033;BME280;71595;52.180;4.512;2024-03-29T07:41:15;99134.69;;;9.66;71.05
82033;BME280;71595;52.180;4.512;2024-03-29T07:43:51;99141.09;;;9.74;70.91
82033;BME280;71595;52.180;4.512;2024-03-29T07:46:17;99138.41;;;9.77;70.28
82033;BME280;71595;52.180;4.512;2024-03-29T07:48:43;99145.16;;;9.83;70.63
82033;BME280;71595;52.180;4.512;2024-03-29T07:51:08;99135.69;;;9.84;70.43
82033;BME280;71595;52.180;4.512;2024-03-29T07:53:33;99134.53;;;9.85;70.13
82033;BME280;71595;52.180;4.512;2024-03-29T07:55:59;99134.53;;;9.85;69.60
82033;BME280;71595;52.180;4.512;2024-03-29T07:58:24;99145.56;;;9.85;69.69
82033;BME280;71595;52.180;4.512;2024-03-29T08:00:51;99137.31;;;9.85;70.23
82033;BME280;71595;52.180;4.512;2024-03-29T08:03:16;99141.31;;;9.92;69.95
82033;BME280;71595;52.180;4.512;2024-03-29T08:05:41;99137.47;;;10.00;69.90
82033;BME280;71595;52.180;4.512;2024-03-29T08:08:07;99133.19;;;10.06;70.15
82033;BME280;71595;52.180;4.512;2024-03-29T08:10:32;99149.00;;;10.13;69.76
82033;BME280;71595;52.180;4.512;2024-03-29T08:12:57;99157.34;;;10.16;69.11
82033;BME280;71595;52.180;4.512;2024-03-29T08:15:23;99167.25;;;10.21;68.54
82033;BME280;71595;52.180;4.512;2024-03-29T08:17:48;99168.78;;;10.18;68.65
82033;BME280;71595;52.180;4.512;2024-03-29T08:20:14;99136.84;;;10.17;68.50
82033;BME280;71595;52.180;4.512;2024-03-29T08:22:39;99128.56;;;10.17;68.56
82033;BME280;71595;52.180;4.512;2024-03-29T08:25:04;99140.03;;;10.19;68.13
82033;BME280;71595;52.180;4.512;2024-03-29T08:27:30;99148.72;;;10.21;68.37
82033;BME280;71595;52.180;4.512;2024-03-29T08:29:55;99155.00;;;10.18;68.27
82033;BME280;71595;52.180;4.512;2024-03-29T08:32:21;99166.03;;;10.18;68.26
82033;BME280;71595;52.180;4.512;2024-03-29T08:34:46;99176.72;;;10.23;68.85
82033;BME280;71595;52.180;4.512;2024-03-29T08:37:11;99172.44;;;10.30;68.82
82033;BME280;71595;52.180;4.512;2024-03-29T08:39:37;99189.44;;;10.32;68.46
82033;BME280;71595;52.180;4.512;2024-03-29T08:42:04;99189.53;;;10.39;67.88
82033;BME280;71595;52.180;4.512;2024-03-29T08:44:36;99185.97;;;10.38;67.88
82033;BME280;71595;52.180;4.512;2024-03-29T08:47:01;99180.47;;;10.38;67.93
82033;BME280;71595;52.180;4.512;2024-03-29T08:49:28;99184.38;;;10.37;68.11
82033;BME280;71595;52.180;4.512;2024-03-29T08:51:54;99193.50;;;10.41;68.14
82033;BME280;71595;52.180;4.512;2024-03-29T08:54:20;99194.28;;;10.42;68.07
82033;BME280;71595;52.180;4.512;2024-03-29T08:56:45;99191.59;;;10.46;67.88
82033;BME280;71595;52.180;4.512;2024-03-29T08:59:10;99209.34;;;10.48;68.01
82033;BME280;71595;52.180;4.512;2024-03-29T09:01:40;99210.94;;;10.49;68.02
82033;BME280;71595;52.180;4.512;2024-03-29T09:04:06;99196.38;;;10.52;67.68
82033;BME280;71595;52.180;4.512;2024-03-29T09:06:33;99197.19;;;10.56;67.48
82033;BME280;71595;52.180;4.512;2024-03-29T09:08:58;99192.47;;;10.57;67.93
82033;BME280;71595;52.180;4.512;2024-03-29T09:11:24;99196.44;;;10.59;68.14
82033;BME280;71595;52.180;4.512;2024-03-29T09:13:49;99192.53;;;10.64;67.79
82033;BME280;71595;52.180;4.512;2024-03-29T09:16:14;99193.34;;;10.65;67.81
82033;BME280;71595;52.180;4.512;2024-03-29T09:18:40;99207.56;;;10.67;67.74
82033;BME280;71595;52.180;4.512;2024-03-29T09:21:05;99210.31;;;10.67;67.80
82033;BME280;71595;52.180;4.512;2024-03-29T09:23:31;99211.47;;;10.66;67.79
82033;BME280;71595;52.180;4.512;2024-03-29T09:25:58;99213.06;;;10.67;67.33
82033;BME280;71595;52.180;4.512;2024-03-29T09:28:24;99217.00;;;10.66;67.96
82033;BME280;71595;52.180;4.512;2024-03-29T09:30:50;99212.31;;;10.70;68.14
82033;BME280;71595;52.180;4.512;2024-03-29T09:33:15;99215.53;;;10.75;68.29
82033;BME280;71595;52.180;4.512;2024-03-29T09:35:41;99218.72;;;10.81;68.79
82033;BME280;71595;52.180;4.512;2024-03-29T09:38:06;99218.00;;;10.88;68.42
82033;BME280;71595;52.180;4.512;2024-03-29T09:40:32;99234.63;;;10.95;68.12
82033;BME280;71595;52.180;4.512;2024-03-29T09:43:01;99241.78;;;11.00;68.00
82033;BME280;71595;52.180;4.512;2024-03-29T09:45:32;99245.38;;;11.04;67.91
82033;BME280;71595;52.180;4.512;2024-03-29T09:48:01;99241.00;;;11.03;68.51
82033;BME280;71595;52.180;4.512;2024-03-29T09:50:28;99231.19;;;11.05;68.19
82033;BME280;71595;52.180;4.512;2024-03-29T09:52:55;99230.44;;;11.12;67.93
82033;BME280;71595;52.180;4.512;2024-03-29T09:55:22;99236.38;;;11.14;68.24
82033;BME280;71595;52.180;4.512;2024-03-29T09:57:48;99222.16;;;11.15;68.30
82033;BME280;71595;52.180;4.512;2024-03-29T10:00:14;99228.94;;;11.22;66.72
82033;BME280;71595;52.180;4.512;2024-03-29T10:02:39;99239.19;;;11.21;66.26
82033;BME280;71595;52.180;4.512;2024-03-29T10:05:08;99227.75;;;11.19;66.32
82033;BME280;71595;52.180;4.512;2024-03-29T10:07:35;99236.41;;;11.18;66.35
82033;BME280;71595;52.180;4.512;2024-03-29T10:10:01;99226.53;;;11.20;66.81
82033;BME280;71595;52.180;4.512;2024-03-29T10:12:28;99231.75;;;11.25;66.55
82033;BME280;71595;52.180;4.512;2024-03-29T10:14:54;99223.09;;;11.30;66.25
82033;BME280;71595;52.180;4.512;2024-03-29T10:17:27;99221.50;;;11.29;66.82
82033;BME280;71595;52.180;4.512;2024-03-29T10:19:53;99229.06;;;11.40;66.34
82033;BME280;71595;52.180;4.512;2024-03-29T10:22:18;99233.44;;;11.41;66.82
82033;BME280;71595;52.180;4.512;2024-03-29T10:24:44;99235.44;;;11.47;66.84
82033;BME280;71595;52.180;4.512;2024-03-29T10:27:09;99241.38;;;11.49;66.88
82033;BME280;71595;52.180;4.512;2024-03-29T10:29:35;99230.34;;;11.53;65.95
82033;BME280;71595;52.180;4.512;2024-03-29T10:32:00;99241.81;;;11.55;66.26
82033;BME280;71595;52.180;4.512;2024-03-29T10:34:27;99244.25;;;11.67;65.85
82033;BME280;71595;52.180;4.512;2024-03-29T10:36:59;99238.34;;;11.73;66.30
82033;BME280;71595;52.180;4.512;2024-03-29T10:39:24;99224.16;;;11.74;66.46
82033;BME280;71595;52.180;4.512;2024-03-29T10:41:49;99244.34;;;11.78;66.32
82033;BME280;71595;52.180;4.512;2024-03-29T10:44:17;99244.75;;;11.84;66.08
82033;BME280;71595;52.180;4.512;2024-03-29T10:46:45;99247.16;;;11.89;65.20
82033;BME280;71595;52.180;4.512;2024-03-29T10:49:14;99240.81;;;11.85;64.27
82033;BME280;71595;52.180;4.512;2024-03-29T10:51:42;99248.72;;;11.83;65.14
82033;BME280;71595;52.180;4.512;2024-03-29T10:54:09;99258.16;;;11.82;64.95
82033;BME280;71595;52.180;4.512;2024-03-29T10:56:36;99255.47;;;11.89;65.06
82033;BME280;71595;52.180;4.512;2024-03-29T10:59:07;99275.59;;;11.90;65.13
82033;BME280;71595;52.180;4.512;2024-03-29T11:01:34;99267.69;;;11.88;64.41
82033;BME280;71595;52.180;4.512;2024-03-29T11:04:08;99287.53;;;11.94;62.82
82033;BME280;71595;52.180;4.512;2024-03-29T11:06:38;99278.84;;;11.95;63.26
82033;BME280;71595;52.180;4.512;2024-03-29T11:09:10;99282.41;;;11.99;62.90
82033;BME280;71595;52.180;4.512;2024-03-29T11:11:40;99276.06;;;11.99;63.11
82033;BME280;71595;52.180;4.512;2024-03-29T11:14:14;99279.28;;;12.04;63.64
82033;BME280;71595;52.180;4.512;2024-03-29T11:16:41;99274.53;;;12.09;63.51
82033;BME280;71595;52.180;4.512;2024-03-29T11:19:12;99269.81;;;12.13;63.33
82033;BME280;71595;52.180;4.512;2024-03-29T11:21:38;99269.44;;;12.18;62.93
82033;BME280;71595;52.180;4.512;2024-03-29T11:24:04;99279.34;;;12.26;62.36
82033;BME280;71595;52.180;4.512;2024-03-29T11:26:30;99295.56;;;12.28;62.55
82033;BME280;71595;52.180;4.512;2024-03-29T11:28:55;99291.63;;;12.25;61.89
82033;BME280;71595;52.180;4.512;2024-03-29T11:31:24;99295.53;;;12.17;62.35
82033;BME280;71595;52.180;4.512;2024-03-29T11:33:50;99293.97;;;12.16;61.95
82033;BME280;71595;52.180;4.512;2024-03-29T11:36:20;99287.66;;;12.19;62.52
82033;BME280;71595;52.180;4.512;2024-03-29T11:38:50;99288.81;;;12.21;62.36
82033;BME280;71595;52.180;4.512;2024-03-29T11:41:18;99292.41;;;12.29;62.62
82033;BME280;71595;52.180;4.512;2024-03-29T11:43:44;99286.88;;;12.29;61.91
82033;BME280;71595;52.180;4.512;2024-03-29T11:46:11;99303.53;;;12.33;62.45
82033;BME280;71595;52.180;4.512;2024-03-29T11:48:38;99307.50;;;12.39;61.90
82033;BME280;71595;52.180;4.512;2024-03-29T11:51:12;99294.06;;;12.45;61.45
82033;BME280;71595;52.180;4.512;2024-03-29T11:53:39;99290.16;;;12.53;61.84
82033;BME280;71595;52.180;4.512;2024-03-29T11:56:06;99285.06;;;12.66;61.94
82033;BME280;71595;52.180;4.512;2024-03-29T11:58:33;99293.00;;;12.78;60.27
82033;BME280;71595;52.180;4.512;2024-03-29T12:00:59;99295.78;;;12.78;59.50
82033;BME280;71595;52.180;4.512;2024-03-29T12:03:26;99300.53;;;12.81;60.20
82033;BME280;71595;52.180;4.512;2024-03-29T12:05:53;99303.69;;;12.87;59.34
82033;BME280;71595;52.180;4.512;2024-03-29T12:08:31;99304.50;;;12.91;60.42
82033;BME280;71595;52.180;4.512;2024-03-29T12:11:00;99305.31;;;12.99;60.03
82033;BME280;71595;52.180;4.512;2024-03-29T12:13:57;99287.91;;;13.09;58.74
82033;BME280;71595;52.180;4.512;2024-03-29T12:16:23;99289.88;;;13.16;58.29
82033;BME280;71595;52.180;4.512;2024-03-29T12:18:49;99293.44;;;13.20;58.41
82033;BME280;71595;52.180;4.512;2024-03-29T12:21:15;99283.94;;;13.24;57.63
82033;BME280;71595;52.180;4.512;2024-03-29T12:23:47;99283.16;;;13.27;58.10
82033;BME280;71595;52.180;4.512;2024-03-29T12:26:14;99277.22;;;13.22;58.77
82033;BME280;71595;52.180;4.512;2024-03-29T12:28:39;99283.16;;;13.24;59.52
82033;BME280;71595;52.180;4.512;2024-03-29T12:31:09;99299.00;;;13.23;59.00
82033;BME280;71595;52.180;4.512;2024-03-29T12:33:34;99287.91;;;13.27;58.88
82033;BME280;71595;52.180;4.512;2024-03-29T12:35:59;99290.28;;;13.21;58.09
82033;BME280;71595;52.180;4.512;2024-03-29T12:38:25;99306.13;;;13.13;58.38
82033;BME280;71595;52.180;4.512;2024-03-29T12:40:51;99304.53;;;13.09;58.46
82033;BME280;71595;52.180;4.512;2024-03-29T12:43:22;99302.13;;;13.04;58.67
82033;BME280;71595;52.180;4.512;2024-03-29T12:45:49;99305.31;;;13.06;58.76
82033;BME280;71595;52.180;4.512;2024-03-29T12:48:20;99311.66;;;13.06;59.25
82033;BME280;71595;52.180;4.512;2024-03-29T12:50:46;99299.75;;;13.02;59.55
82033;BME280;71595;52.180;4.512;2024-03-29T12:53:12;99298.97;;;12.98;59.96
82033;BME280;71595;52.180;4.512;2024-03-29T12:55:40;99317.97;;;13.00;60.27
82033;BME280;71595;52.180;4.512;2024-03-29T12:58:07;99319.16;;;12.99;60.16
82033;BME280;71595;52.180;4.512;2024-03-29T13:00:35;99314.78;;;12.98;59.55
82033;BME280;71595;52.180;4.512;2024-03-29T13:03:01;99307.69;;;13.00;59.63
82033;BME280;71595;52.180;4.512;2024-03-29T13:05:26;99295.81;;;13.07;59.24
82033;BME280;71595;52.180;4.512;2024-03-29T13:07:54;99301.38;;;13.10;59.01
82033;BME280;71595;52.180;4.512;2024-03-29T13:10:20;99309.28;;;13.16;59.26